sensor_id;sensor_type;location;lat;lon;timestamp;temperature;humidity
21090;DHT22;10703;51.020;6.128;2023-06-26T00:01:00;21.70;99.90
21090;DHT22;10703;51.020;6.128;2023-06-26T00:03:27;21.60;99.90
21090;DHT22;10703;51.020;6.128;2023-06-26T00:05:55;21.80;99.90
21090;DHT22;10703;51.020;6.128;2023-06-26T00:08:27;21.70;99.90
21090;DHT22;10703;51.020;6.128;2023-06-26T00:10:54;21.80;99.90
21090;DHT22;10703;51.020;6.128;2023-06-26T00:13:22;21.80;99.90
21090;DHT22;10703;51.020;6.128;2023-06-26T00:15:50;21.90;99.90
21090;DHT22;10703;51.020;6.128;2023-06-26T00:18:17;21.80;99.90
21090;DHT22;10703;51.020;6.128;2023-06-26T00:20:43;21.70;99.90
21090;DHT22;10703;51.020;6.128;2023-06-26T00:23:15;21.90;99.90
21090;DHT22;10703;51.020;6.128;2023-06-26T00:25:43;21.70;99.90
21090;DHT22;10703;51.020;6.128;2023-06-26T00:28:10;21.60;99.90
21090;DHT22;10703;51.020;6.128;2023-06-26T00:30:36;21.50;99.90
21090;DHT22;10703;51.020;6.128;2023-06-26T00:33:03;21.50;99.90
21090;DHT22;10703;51.020;6.128;2023-06-26T00:35:30;21.20;99.90
21090;DHT22;10703;51.020;6.128;2023-06-26T00:37:56;21.20;99.90
21090;DHT22;10703;51.020;6.128;2023-06-26T00:40:23;21.30;99.90
21090;DHT22;10703;51.020;6.128;2023-06-26T00:42:50;21.10;99.90
21090;DHT22;10703;51.020;6.128;2023-06-26T00:45:16;21.10;99.90
21090;DHT22;10703;51.020;6.128;2023-06-26T00:47:52;21.20;99.90
21090;DHT22;10703;51.020;6.128;2023-06-26T00:50:19;21.10;99.90
21090;DHT22;10703;51.020;6.128;2023-06-26T00:52:46;21.10;99.90
21090;DHT22;10703;51.020;6.128;2023-06-26T00:55:13;21.10;99.90
21090;DHT22;10703;51.020;6.128;2023-06-26T00:57:40;21.00;99.90
21090;DHT22;10703;51.020;6.128;2023-06-26T01:00:08;21.10;99.90
21090;DHT22;10703;51.020;6.128;2023-06-26T01:02:36;21.20;99.90
21090;DHT22;10703;51.020;6.128;2023-06-26T01:05:06;21.30;99.90
21090;DHT22;10703;51.020;6.128;2023-06-26T01:07:34;21.30;99.90
21090;DHT22;10703;51.020;6.128;2023-06-26T01:10:06;21.70;99.90
21090;DHT22;10703;51.020;6.128;2023-06-26T01:12:33;21.60;99.90
21090;DHT22;10703;51.020;6.128;2023-06-26T01:15:00;21.50;99.90
21090;DHT22;10703;51.020;6.128;2023-06-26T01:17:27;21.30;99.90
21090;DHT22;10703;51.020;6.128;2023-06-26T01:19:59;21.40;99.90
21090;DHT22;10703;51.020;6.128;2023-06-26T01:23:03;21.20;99.90
21090;DHT22;10703;51.020;6.128;2023-06-26T01:28:42;21.10;99.90
21090;DHT22;10703;51.020;6.128;2023-06-26T01:31:10;21.10;99.90
21090;DHT22;10703;51.020;6.128;2023-06-26T01:33:37;21.20;99.90
21090;DHT22;10703;51.020;6.128;2023-06-26T01:36:04;21.30;99.90
21090;DHT22;10703;51.020;6.128;2023-06-26T01:38:31;21.30;99.90
21090;DHT22;10703;51.020;6.128;2023-06-26T01:40:58;21.50;99.90
21090;DHT22;10703;51.020;6.128;2023-06-26T01:44:10;21.40;99.90
21090;DHT22;10703;51.020;6.128;2023-06-26T01:46:59;21.30;99.90
21090;DHT22;10703;51.020;6.128;2023-06-26T01:52:46;21.30;99.90
21090;DHT22;10703;51.020;6.128;2023-06-26T01:57:55;21.20;99.90
21090;DHT22;10703;51.020;6.128;2023-06-26T02:00:23;21.10;99.90
21090;DHT22;10703;51.020;6.128;2023-06-26T02:02:50;21.00;99.90
21090;DHT22;10703;51.020;6.128;2023-06-26T02:05:18;20.90;99.90
21090;DHT22;10703;51.020;6.128;2023-06-26T02:07:45;20.70;99.90
21090;DHT22;10703;51.020;6.128;2023-06-26T02:10:11;20.60;99.90
21090;DHT22;10703;51.020;6.128;2023-06-26T02:12:38;20.50;99.90
21090;DHT22;10703;51.020;6.128;2023-06-26T02:15:05;20.50;99.90
21090;DHT22;10703;51.020;6.128;2023-06-26T02:17:32;20.40;99.90
21090;DHT22;10703;51.020;6.128;2023-06-26T02:19:59;20.40;99.90
21090;DHT22;10703;51.020;6.128;2023-06-26T02:22:26;20.40;99.90
21090;DHT22;10703;51.020;6.128;2023-06-26T02:24:54;20.50;99.90
21090;DHT22;10703;51.020;6.128;2023-06-26T02:27:21;20.40;99.90
21090;DHT22;10703;51.020;6.128;2023-06-26T02:29:48;20.20;99.90
21090;DHT22;10703;51.020;6.128;2023-06-26T02:32:15;20.20;99.90
21090;DHT22;10703;51.020;6.128;2023-06-26T02:34:41;20.10;99.90
21090;DHT22;10703;51.020;6.128;2023-06-26T02:37:08;20.20;99.90
21090;DHT22;10703;51.020;6.128;2023-06-26T02:39:34;19.90;99.90
21090;DHT22;10703;51.020;6.128;2023-06-26T02:42:01;20.00;99.90
21090;DHT22;10703;51.020;6.128;2023-06-26T02:44:28;19.90;99.90
21090;DHT22;10703;51.020;6.128;2023-06-26T02:46:54;20.00;99.90
21090;DHT22;10703;51.020;6.128;2023-06-26T02:49:21;19.90;99.90
21090;DHT22;10703;51.020;6.128;2023-06-26T02:51:49;20.00;99.90
21090;DHT22;10703;51.020;6.128;2023-06-26T02:54:15;20.00;99.90
21090;DHT22;10703;51.020;6.128;2023-06-26T02:56:42;20.00;99.90
21090;DHT22;10703;51.020;6.128;2023-06-26T02:59:14;20.00;99.90
21090;DHT22;10703;51.020;6.128;2023-06-26T03:01:40;19.80;99.90
21090;DHT22;10703;51.020;6.128;2023-06-26T03:04:07;19.70;99.90
21090;DHT22;10703;51.020;6.128;2023-06-26T03:06:34;19.70;99.90
21090;DHT22;10703;51.020;6.128;2023-06-26T03:09:01;19.70;99.90
21090;DHT22;10703;51.020;6.128;2023-06-26T03:11:27;19.60;99.90
21090;DHT22;10703;51.020;6.128;2023-06-26T03:13:54;19.70;99.90
21090;DHT22;10703;51.020;6.128;2023-06-26T03:16:21;19.60;99.90
21090;DHT22;10703;51.020;6.128;2023-06-26T03:18:47;19.60;99.90
21090;DHT22;10703;51.020;6.128;2023-06-26T03:21:14;19.70;99.90
21090;DHT22;10703;51.020;6.128;2023-06-26T03:23:41;19.60;99.90
21090;DHT22;10703;51.020;6.128;2023-06-26T03:26:07;19.60;99.90
21090;DHT22;10703;51.020;6.128;2023-06-26T03:28:34;19.50;99.90
21090;DHT22;10703;51.020;6.128;2023-06-26T03:31:01;19.50;99.90
21090;DHT22;10703;51.020;6.128;2023-06-26T03:33:27;19.50;99.90
21090;DHT22;10703;51.020;6.128;2023-06-26T03:35:54;19.60;99.90
21090;DHT22;10703;51.020;6.128;2023-06-26T03:38:22;19.50;99.90
21090;DHT22;10703;51.020;6.128;2023-06-26T03:40:48;19.50;99.90
21090;DHT22;10703;51.020;6.128;2023-06-26T03:43:15;19.70;99.90
21090;DHT22;10703;51.020;6.128;2023-06-26T03:45:42;19.50;99.90
21090;DHT22;10703;51.020;6.128;2023-06-26T03:48:08;19.60;99.90
21090;DHT22;10703;51.020;6.128;2023-06-26T03:50:35;19.70;99.90
21090;DHT22;10703;51.020;6.128;2023-06-26T03:53:02;19.70;99.90
21090;DHT22;10703;51.020;6.128;2023-06-26T03:55:29;19.70;99.90
21090;DHT22;10703;51.020;6.128;2023-06-26T03:57:55;19.40;99.90
21090;DHT22;10703;51.020;6.128;2023-06-26T04:00:22;19.60;99.90
21090;DHT22;10703;51.020;6.128;2023-06-26T04:02:49;19.40;99.90
21090;DHT22;10703;51.020;6.128;2023-06-26T04:05:17;19.50;99.90
21090;DHT22;10703;51.020;6.128;2023-06-26T04:07:45;19.50;99.90
21090;DHT22;10703;51.020;6.128;2023-06-26T04:10:12;19.50;99.90
21090;DHT22;10703;51.020;6.128;2023-06-26T04:12:38;19.40;99.90
21090;DHT22;10703;51.020;6.128;2023-06-26T04:15:05;19.40;99.90
21090;DHT22;10703;51.020;6.128;2023-06-26T04:17:32;19.40;99.90
21090;DHT22;10703;51.020;6.128;2023-06-26T04:19:59;19.30;99.90
21090;DHT22;10703;51.020;6.128;2023-06-26T04:22:25;19.40;99.90
21090;DHT22;10703;51.020;6.128;2023-06-26T04:24:52;19.40;99.90
21090;DHT22;10703;51.020;6.128;2023-06-26T04:27:19;19.50;99.90
21090;DHT22;10703;51.020;6.128;2023-06-26T04:29:45;19.50;99.90
21090;DHT22;10703;51.020;6.128;2023-06-26T04:32:12;19.50;99.90
21090;DHT22;10703;51.020;6.128;2023-06-26T04:34:38;19.70;99.90
21090;DHT22;10703;51.020;6.128;2023-06-26T04:37:07;19.50;99.90
21090;DHT22;10703;51.020;6.128;2023-06-26T04:39:36;19.40;99.90
21090;DHT22;10703;51.020;6.128;2023-06-26T04:42:04;19.30;99.90
21090;DHT22;10703;51.020;6.128;2023-06-26T04:44:32;19.30;99.90
21090;DHT22;10703;51.020;6.128;2023-06-26T04:46:59;19.20;99.90
21090;DHT22;10703;51.020;6.128;2023-06-26T04:49:25;19.20;99.90
21090;DHT22;10703;51.020;6.128;2023-06-26T04:51:55;19.20;99.90
21090;DHT22;10703;51.020;6.128;2023-06-26T04:54:21;19.20;99.90
21090;DHT22;10703;51.020;6.128;2023-06-26T04:56:49;19.20;99.90
21090;DHT22;10703;51.020;6.128;2023-06-26T04:59:15;19.20;99.90
21090;DHT22;10703;51.020;6.128;2023-06-26T05:01:42;19.20;99.90
21090;DHT22;10703;51.020;6.128;2023-06-26T05:04:15;19.30;99.90
21090;DHT22;10703;51.020;6.128;2023-06-26T05:06:42;19.40;99.90
21090;DHT22;10703;51.020;6.128;2023-06-26T05:09:09;19.40;99.90
21090;DHT22;10703;51.020;6.128;2023-06-26T05:11:37;19.40;99.90
21090;DHT22;10703;51.020;6.128;2023-06-26T05:14:04;19.40;99.90
21090;DHT22;10703;51.020;6.128;2023-06-26T05:16:33;19.40;99.90
21090;DHT22;10703;51.020;6.128;2023-06-26T05:19:01;19.30;99.90
21090;DHT22;10703;51.020;6.128;2023-06-26T05:21:28;19.40;99.90
21090;DHT22;10703;51.020;6.128;2023-06-26T05:23:56;19.50;99.90
21090;DHT22;10703;51.020;6.128;2023-06-26T05:26:24;19.50;99.90
21090;DHT22;10703;51.020;6.128;2023-06-26T05:28:51;19.60;99.90
21090;DHT22;10703;51.020;6.128;2023-06-26T05:31:18;19.70;99.90
21090;DHT22;10703;51.020;6.128;2023-06-26T05:33:45;19.80;99.90
21090;DHT22;10703;51.020;6.128;2023-06-26T05:36:13;19.70;99.90
21090;DHT22;10703;51.020;6.128;2023-06-26T05:38:42;19.60;99.90
21090;DHT22;10703;51.020;6.128;2023-06-26T05:41:09;19.60;99.90
21090;DHT22;10703;51.020;6.128;2023-06-26T05:43:36;19.80;99.90
21090;DHT22;10703;51.020;6.128;2023-06-26T05:46:02;19.70;99.90
21090;DHT22;10703;51.020;6.128;2023-06-26T05:48:29;19.70;99.90
21090;DHT22;10703;51.020;6.128;2023-06-26T05:50:56;19.70;99.90
21090;DHT22;10703;51.020;6.128;2023-06-26T05:53:22;19.60;99.90
21090;DHT22;10703;51.020;6.128;2023-06-26T05:55:49;19.70;99.90
21090;DHT22;10703;51.020;6.128;2023-06-26T05:58:18;19.80;99.90
21090;DHT22;10703;51.020;6.128;2023-06-26T06:00:46;19.90;99.90
21090;DHT22;10703;51.020;6.128;2023-06-26T06:03:13;20.00;99.90
21090;DHT22;10703;51.020;6.128;2023-06-26T06:05:39;20.10;99.90
21090;DHT22;10703;51.020;6.128;2023-06-26T06:08:06;20.10;99.90
21090;DHT22;10703;51.020;6.128;2023-06-26T06:10:33;20.20;99.90
21090;DHT22;10703;51.020;6.128;2023-06-26T06:12:59;20.10;99.90
21090;DHT22;10703;51.020;6.128;2023-06-26T06:15:26;20.20;99.90
21090;DHT22;10703;51.020;6.128;2023-06-26T06:17:56;20.10;99.90
21090;DHT22;10703;51.020;6.128;2023-06-26T06:20:23;20.00;99.90
21090;DHT22;10703;51.020;6.128;2023-06-26T06:22:49;20.10;99.90
21090;DHT22;10703;51.020;6.128;2023-06-26T06:25:16;20.10;99.90
21090;DHT22;10703;51.020;6.128;2023-06-26T06:27:43;20.30;99.90
21090;DHT22;10703;51.020;6.128;2023-06-26T06:30:11;20.20;99.90
21090;DHT22;10703;51.020;6.128;2023-06-26T06:32:37;20.20;99.90
21090;DHT22;10703;51.020;6.128;2023-06-26T06:35:04;20.20;99.90
21090;DHT22;10703;51.020;6.128;2023-06-26T06:37:39;20.30;99.90
21090;DHT22;10703;51.020;6.128;2023-06-26T06:40:06;20.40;99.90
21090;DHT22;10703;51.020;6.128;2023-06-26T06:42:33;20.80;99.90
21090;DHT22;10703;51.020;6.128;2023-06-26T06:45:01;21.10;99.90
21090;DHT22;10703;51.020;6.128;2023-06-26T06:47:28;21.20;99.90
21090;DHT22;10703;51.020;6.128;2023-06-26T06:49:54;21.50;99.90
21090;DHT22;10703;51.020;6.128;2023-06-26T06:52:21;21.70;99.90
21090;DHT22;10703;51.020;6.128;2023-06-26T06:54:53;21.80;99.90
21090;DHT22;10703;51.020;6.128;2023-06-26T06:57:20;21.80;99.90
21090;DHT22;10703;51.020;6.128;2023-06-26T06:59:47;22.00;99.90
21090;DHT22;10703;51.020;6.128;2023-06-26T07:02:17;22.20;99.90
21090;DHT22;10703;51.020;6.128;2023-06-26T07:04:43;22.20;99.90
21090;DHT22;10703;51.020;6.128;2023-06-26T07:07:10;22.30;99.90
21090;DHT22;10703;51.020;6.128;2023-06-26T07:09:37;22.60;99.90
21090;DHT22;10703;51.020;6.128;2023-06-26T07:12:04;22.70;99.90
21090;DHT22;10703;51.020;6.128;2023-06-26T07:14:30;22.90;99.90
21090;DHT22;10703;51.020;6.128;2023-06-26T07:16:57;23.10;99.90
21090;DHT22;10703;51.020;6.128;2023-06-26T07:19:24;23.20;99.90
21090;DHT22;10703;51.020;6.128;2023-06-26T07:21:50;23.40;99.90
21090;DHT22;10703;51.020;6.128;2023-06-26T07:24:17;23.20;99.90
21090;DHT22;10703;51.020;6.128;2023-06-26T07:26:44;23.00;99.90
21090;DHT22;10703;51.020;6.128;2023-06-26T07:29:14;22.40;99.90
21090;DHT22;10703;51.020;6.128;2023-06-26T07:31:40;22.30;99.90
21090;DHT22;10703;51.020;6.128;2023-06-26T07:34:07;22.40;99.90
21090;DHT22;10703;51.020;6.128;2023-06-26T07:36:33;22.60;99.90
21090;DHT22;10703;51.020;6.128;2023-06-26T07:39:00;22.80;99.90
21090;DHT22;10703;51.020;6.128;2023-06-26T07:41:27;23.20;99.90
21090;DHT22;10703;51.020;6.128;2023-06-26T07:43:56;23.30;99.90
21090;DHT22;10703;51.020;6.128;2023-06-26T07:46:23;23.20;99.90
21090;DHT22;10703;51.020;6.128;2023-06-26T07:48:50;23.50;99.90
21090;DHT22;10703;51.020;6.128;2023-06-26T07:51:16;23.50;99.90
21090;DHT22;10703;51.020;6.128;2023-06-26T07:53:43;23.10;99.90
21090;DHT22;10703;51.020;6.128;2023-06-26T07:56:10;22.90;99.90
21090;DHT22;10703;51.020;6.128;2023-06-26T07:58:36;22.60;99.90
21090;DHT22;10703;51.020;6.128;2023-06-26T08:01:05;22.40;99.90
21090;DHT22;10703;51.020;6.128;2023-06-26T08:03:31;22.80;99.90
21090;DHT22;10703;51.020;6.128;2023-06-26T08:06:01;23.10;99.90
21090;DHT22;10703;51.020;6.128;2023-06-26T08:08:28;23.00;99.90
21090;DHT22;10703;51.020;6.128;2023-06-26T08:10:54;22.80;99.90
21090;DHT22;10703;51.020;6.128;2023-06-26T08:13:21;22.70;99.90
21090;DHT22;10703;51.020;6.128;2023-06-26T08:15:48;22.60;99.90
21090;DHT22;10703;51.020;6.128;2023-06-26T08:18:14;23.10;99.90
21090;DHT22;10703;51.020;6.128;2023-06-26T08:20:41;23.80;99.90
21090;DHT22;10703;51.020;6.128;2023-06-26T08:23:08;24.00;99.90
21090;DHT22;10703;51.020;6.128;2023-06-26T08:25:34;23.80;99.90
21090;DHT22;10703;51.020;6.128;2023-06-26T08:28:01;24.10;99.90
21090;DHT22;10703;51.020;6.128;2023-06-26T08:30:28;24.10;99.90
21090;DHT22;10703;51.020;6.128;2023-06-26T08:32:58;23.80;99.90
21090;DHT22;10703;51.020;6.128;2023-06-26T08:35:24;23.70;99.90
21090;DHT22;10703;51.020;6.128;2023-06-26T08:37:51;23.70;99.90
21090;DHT22;10703;51.020;6.128;2023-06-26T08:40:18;23.80;99.90
21090;DHT22;10703;51.020;6.128;2023-06-26T08:42:45;23.50;99.90
21090;DHT22;10703;51.020;6.128;2023-06-26T08:45:12;23.30;99.90
21090;DHT22;10703;51.020;6.128;2023-06-26T08:47:40;23.10;99.90
21090;DHT22;10703;51.020;6.128;2023-06-26T08:50:10;23.10;99.90
21090;DHT22;10703;51.020;6.128;2023-06-26T08:52:57;23.00;99.90
21090;DHT22;10703;51.020;6.128;2023-06-26T08:55:27;23.10;99.90
21090;DHT22;10703;51.020;6.128;2023-06-26T08:57:55;23.60;99.90
21090;DHT22;10703;51.020;6.128;2023-06-26T09:00:22;23.90;99.90
21090;DHT22;10703;51.020;6.128;2023-06-26T09:02:49;24.10;99.90
21090;DHT22;10703;51.020;6.128;2023-06-26T09:05:16;24.30;99.90
21090;DHT22;10703;51.020;6.128;2023-06-26T09:07:42;24.60;99.90
21090;DHT22;10703;51.020;6.128;2023-06-26T09:10:09;24.70;99.90
21090;DHT22;10703;51.020;6.128;2023-06-26T09:12:37;25.10;99.90
21090;DHT22;10703;51.020;6.128;2023-06-26T09:15:08;25.10;99.90
21090;DHT22;10703;51.020;6.128;2023-06-26T09:17:39;25.10;99.90
21090;DHT22;10703;51.020;6.128;2023-06-26T09:20:09;24.80;99.90
21090;DHT22;10703;51.020;6.128;2023-06-26T09:22:37;24.90;99.90
21090;DHT22;10703;51.020;6.128;2023-06-26T09:25:07;24.80;99.90
21090;DHT22;10703;51.020;6.128;2023-06-26T09:27:36;25.10;99.90
21090;DHT22;10703;51.020;6.128;2023-06-26T09:30:06;25.20;99.90
21090;DHT22;10703;51.020;6.128;2023-06-26T09:32:36;25.20;99.90
21090;DHT22;10703;51.020;6.128;2023-06-26T09:35:04;25.20;99.90
21090;DHT22;10703;51.020;6.128;2023-06-26T09:37:31;25.40;99.90
21090;DHT22;10703;51.020;6.128;2023-06-26T09:39:58;25.40;99.90
21090;DHT22;10703;51.020;6.128;2023-06-26T09:42:24;25.30;99.90
21090;DHT22;10703;51.020;6.128;2023-06-26T09:44:51;25.70;99.90
21090;DHT22;10703;51.020;6.128;2023-06-26T09:47:19;26.20;99.90
21090;DHT22;10703;51.020;6.128;2023-06-26T09:49:46;25.60;99.90
21090;DHT22;10703;51.020;6.128;2023-06-26T09:52:14;25.60;99.90
21090;DHT22;10703;51.020;6.128;2023-06-26T09:54:43;25.20;99.90
21090;DHT22;10703;51.020;6.128;2023-06-26T09:57:14;25.20;99.90
21090;DHT22;10703;51.020;6.128;2023-06-26T09:59:42;25.60;99.90
21090;DHT22;10703;51.020;6.128;2023-06-26T10:02:10;25.60;99.90
21090;DHT22;10703;51.020;6.128;2023-06-26T10:04:38;25.50;99.90
21090;DHT22;10703;51.020;6.128;2023-06-26T10:07:06;25.40;99.90
21090;DHT22;10703;51.020;6.128;2023-06-26T10:09:37;25.20;99.90
21090;DHT22;10703;51.020;6.128;2023-06-26T10:12:11;25.90;99.90
21090;DHT22;10703;51.020;6.128;2023-06-26T10:14:41;26.00;99.90
21090;DHT22;10703;51.020;6.128;2023-06-26T10:17:13;25.80;99.90
21090;DHT22;10703;51.020;6.128;2023-06-26T10:19:44;26.10;99.90
21090;DHT22;10703;51.020;6.128;2023-06-26T10:22:14;26.00;98.70
21090;DHT22;10703;51.020;6.128;2023-06-26T10:24:41;26.00;96.90
21090;DHT22;10703;51.020;6.128;2023-06-26T10:27:21;26.10;97.80
21090;DHT22;10703;51.020;6.128;2023-06-26T10:29:54;26.60;98.60
21090;DHT22;10703;51.020;6.128;2023-06-26T10:32:24;27.30;96.60
21090;DHT22;10703;51.020;6.128;2023-06-26T10:34:52;27.40;96.60
21090;DHT22;10703;51.020;6.128;2023-06-26T10:37:19;27.20;96.30
21090;DHT22;10703;51.020;6.128;2023-06-26T10:42:12;26.60;98.80
21090;DHT22;10703;51.020;6.128;2023-06-26T10:44:44;27.00;95.00
21090;DHT22;10703;51.020;6.128;2023-06-26T10:47:13;26.10;95.10
21090;DHT22;10703;51.020;6.128;2023-06-26T10:49:54;26.20;96.60
21090;DHT22;10703;51.020;6.128;2023-06-26T10:52:39;26.80;96.30
21090;DHT22;10703;51.020;6.128;2023-06-26T10:55:08;27.40;93.20
21090;DHT22;10703;51.020;6.128;2023-06-26T10:57:36;27.50;94.70
21090;DHT22;10703;51.020;6.128;2023-06-26T11:00:10;26.70;94.90
21090;DHT22;10703;51.020;6.128;2023-06-26T11:02:50;26.20;93.70
21090;DHT22;10703;51.020;6.128;2023-06-26T11:05:27;25.90;95.10
21090;DHT22;10703;51.020;6.128;2023-06-26T11:08:10;25.90;95.20
21090;DHT22;10703;51.020;6.128;2023-06-26T11:10:54;26.40;94.60
21090;DHT22;10703;51.020;6.128;2023-06-26T11:13:26;26.60;94.40
21090;DHT22;10703;51.020;6.128;2023-06-26T11:15:53;25.70;94.70
21090;DHT22;10703;51.020;6.128;2023-06-26T11:18:24;25.50;95.70
21090;DHT22;10703;51.020;6.128;2023-06-26T11:20:51;26.20;95.10
21090;DHT22;10703;51.020;6.128;2023-06-26T11:23:22;26.40;93.60
21090;DHT22;10703;51.020;6.128;2023-06-26T11:25:50;26.30;92.90
21090;DHT22;10703;51.020;6.128;2023-06-26T11:28:17;26.70;93.60
21090;DHT22;10703;51.020;6.128;2023-06-26T11:30:43;27.10;92.20
21090;DHT22;10703;51.020;6.128;2023-06-26T11:33:10;27.30;92.00
21090;DHT22;10703;51.020;6.128;2023-06-26T11:35:37;27.10;91.00
21090;DHT22;10703;51.020;6.128;2023-06-26T11:38:05;26.20;92.70
21090;DHT22;10703;51.020;6.128;2023-06-26T11:40:33;26.20;92.20
21090;DHT22;10703;51.020;6.128;2023-06-26T11:43:03;26.00;91.80
21090;DHT22;10703;51.020;6.128;2023-06-26T11:45:33;26.00;93.00
21090;DHT22;10703;51.020;6.128;2023-06-26T11:48:00;26.30;90.60
21090;DHT22;10703;51.020;6.128;2023-06-26T11:50:28;26.80;90.20
21090;DHT22;10703;51.020;6.128;2023-06-26T11:52:58;27.30;88.70
21090;DHT22;10703;51.020;6.128;2023-06-26T11:55:26;27.20;90.60
21090;DHT22;10703;51.020;6.128;2023-06-26T11:57:53;27.50;90.30
21090;DHT22;10703;51.020;6.128;2023-06-26T12:00:21;27.80;87.10
21090;DHT22;10703;51.020;6.128;2023-06-26T12:02:48;27.70;83.90
21090;DHT22;10703;51.020;6.128;2023-06-26T12:05:17;27.50;86.00
21090;DHT22;10703;51.020;6.128;2023-06-26T12:07:47;26.90;90.20
21090;DHT22;10703;51.020;6.128;2023-06-26T12:10:15;26.40;88.10
21090;DHT22;10703;51.020;6.128;2023-06-26T12:12:42;25.90;87.00
21090;DHT22;10703;51.020;6.128;2023-06-26T12:15:12;25.50;90.10
21090;DHT22;10703;51.020;6.128;2023-06-26T12:17:39;25.70;89.60
21090;DHT22;10703;51.020;6.128;2023-06-26T12:20:21;25.60;89.80
21090;DHT22;10703;51.020;6.128;2023-06-26T12:22:48;26.10;90.10
21090;DHT22;10703;51.020;6.128;2023-06-26T12:25:21;26.00;89.90
21090;DHT22;10703;51.020;6.128;2023-06-26T12:27:49;26.50;86.80
21090;DHT22;10703;51.020;6.128;2023-06-26T12:30:16;26.90;86.40
21090;DHT22;10703;51.020;6.128;2023-06-26T12:32:46;26.80;85.70
21090;DHT22;10703;51.020;6.128;2023-06-26T12:35:15;27.30;86.80
21090;DHT22;10703;51.020;6.128;2023-06-26T12:37:43;27.70;85.10
21090;DHT22;10703;51.020;6.128;2023-06-26T12:40:19;27.20;81.70
21090;DHT22;10703;51.020;6.128;2023-06-26T12:42:48;27.40;83.00
21090;DHT22;10703;51.020;6.128;2023-06-26T12:45:15;27.50;84.00
21090;DHT22;10703;51.020;6.128;2023-06-26T12:48:09;27.80;84.30
21090;DHT22;10703;51.020;6.128;2023-06-26T12:50:43;27.70;84.60
21090;DHT22;10703;51.020;6.128;2023-06-26T12:53:09;27.90;83.40
21090;DHT22;10703;51.020;6.128;2023-06-26T12:55:36;27.70;85.10
21090;DHT22;10703;51.020;6.128;2023-06-26T12:58:03;28.00;84.70
21090;DHT22;10703;51.020;6.128;2023-06-26T13:00:30;27.60;85.60
21090;DHT22;10703;51.020;6.128;2023-06-26T13:02:58;27.30;85.70
21090;DHT22;10703;51.020;6.128;2023-06-26T13:05:25;26.60;88.30
21090;DHT22;10703;51.020;6.128;2023-06-26T13:07:52;26.50;87.00
21090;DHT22;10703;51.020;6.128;2023-06-26T13:10:20;26.30;85.80
21090;DHT22;10703;51.020;6.128;2023-06-26T13:12:47;26.90;85.50
21090;DHT22;10703;51.020;6.128;2023-06-26T13:15:14;27.10;86.70
21090;DHT22;10703;51.020;6.128;2023-06-26T13:17:41;27.40;86.80
21090;DHT22;10703;51.020;6.128;2023-06-26T13:20:08;27.60;86.80
21090;DHT22;10703;51.020;6.128;2023-06-26T13:22:35;28.30;83.20
21090;DHT22;10703;51.020;6.128;2023-06-26T13:25:01;28.70;87.70
21090;DHT22;10703;51.020;6.128;2023-06-26T13:27:28;27.20;86.30
21090;DHT22;10703;51.020;6.128;2023-06-26T13:29:55;26.90;86.70
21090;DHT22;10703;51.020;6.128;2023-06-26T13:32:21;27.20;84.60
21090;DHT22;10703;51.020;6.128;2023-06-26T13:34:48;26.90;82.50
21090;DHT22;10703;51.020;6.128;2023-06-26T13:37:15;27.10;82.70
21090;DHT22;10703;51.020;6.128;2023-06-26T13:39:41;27.90;86.90
21090;DHT22;10703;51.020;6.128;2023-06-26T13:42:09;28.10;81.30
21090;DHT22;10703;51.020;6.128;2023-06-26T13:44:36;27.70;85.00
21090;DHT22;10703;51.020;6.128;2023-06-26T13:47:17;27.00;85.40
21090;DHT22;10703;51.020;6.128;2023-06-26T13:49:44;26.30;87.40
21090;DHT22;10703;51.020;6.128;2023-06-26T13:52:10;26.80;85.70
21090;DHT22;10703;51.020;6.128;2023-06-26T13:54:37;27.00;83.20
21090;DHT22;10703;51.020;6.128;2023-06-26T13:57:08;27.00;87.40
21090;DHT22;10703;51.020;6.128;2023-06-26T13:59:37;26.50;83.20
21090;DHT22;10703;51.020;6.128;2023-06-26T14:02:04;26.60;84.50
21090;DHT22;10703;51.020;6.128;2023-06-26T14:04:32;26.20;85.20
21090;DHT22;10703;51.020;6.128;2023-06-26T14:06:59;26.50;86.40
21090;DHT22;10703;51.020;6.128;2023-06-26T14:09:26;26.30;83.90
21090;DHT22;10703;51.020;6.128;2023-06-26T14:11:52;25.80;83.80
21090;DHT22;10703;51.020;6.128;2023-06-26T14:14:19;25.50;83.60
21090;DHT22;10703;51.020;6.128;2023-06-26T14:16:46;25.60;85.40
21090;DHT22;10703;51.020;6.128;2023-06-26T14:19:12;26.10;85.30
21090;DHT22;10703;51.020;6.128;2023-06-26T14:21:41;26.20;84.20
21090;DHT22;10703;51.020;6.128;2023-06-26T14:24:08;25.70;86.20
21090;DHT22;10703;51.020;6.128;2023-06-26T14:26:35;25.30;86.60
21090;DHT22;10703;51.020;6.128;2023-06-26T14:29:03;25.50;86.40
21090;DHT22;10703;51.020;6.128;2023-06-26T14:31:30;25.70;86.00
21090;DHT22;10703;51.020;6.128;2023-06-26T14:33:58;26.10;84.00
21090;DHT22;10703;51.020;6.128;2023-06-26T14:36:27;26.90;85.10
21090;DHT22;10703;51.020;6.128;2023-06-26T14:38:54;26.90;84.90
21090;DHT22;10703;51.020;6.128;2023-06-26T14:41:22;26.50;85.90
21090;DHT22;10703;51.020;6.128;2023-06-26T14:43:49;25.70;82.70
21090;DHT22;10703;51.020;6.128;2023-06-26T14:46:16;25.10;83.10
21090;DHT22;10703;51.020;6.128;2023-06-26T14:48:43;25.40;87.50
21090;DHT22;10703;51.020;6.128;2023-06-26T14:51:10;25.50;86.70
21090;DHT22;10703;51.020;6.128;2023-06-26T14:53:39;25.30;87.30
21090;DHT22;10703;51.020;6.128;2023-06-26T14:56:06;24.90;83.20
21090;DHT22;10703;51.020;6.128;2023-06-26T14:58:34;24.90;86.30
21090;DHT22;10703;51.020;6.128;2023-06-26T15:01:01;25.20;83.90
21090;DHT22;10703;51.020;6.128;2023-06-26T15:03:27;25.50;87.00
21090;DHT22;10703;51.020;6.128;2023-06-26T15:05:54;26.30;86.40
21090;DHT22;10703;51.020;6.128;2023-06-26T15:08:21;26.10;85.40
21090;DHT22;10703;51.020;6.128;2023-06-26T15:10:47;25.60;81.10
21090;DHT22;10703;51.020;6.128;2023-06-26T15:13:16;25.60;84.90
21090;DHT22;10703;51.020;6.128;2023-06-26T15:15:42;25.70;85.60
21090;DHT22;10703;51.020;6.128;2023-06-26T15:18:09;25.80;86.40
21090;DHT22;10703;51.020;6.128;2023-06-26T15:20:36;26.10;85.30
21090;DHT22;10703;51.020;6.128;2023-06-26T15:23:03;26.10;84.60
21090;DHT22;10703;51.020;6.128;2023-06-26T15:25:29;25.80;84.80
21090;DHT22;10703;51.020;6.128;2023-06-26T15:27:58;26.10;85.00
21090;DHT22;10703;51.020;6.128;2023-06-26T15:30:24;26.00;83.00
21090;DHT22;10703;51.020;6.128;2023-06-26T15:32:51;26.10;82.80
21090;DHT22;10703;51.020;6.128;2023-06-26T15:35:19;26.00;81.70
21090;DHT22;10703;51.020;6.128;2023-06-26T15:37:46;26.00;83.10
21090;DHT22;10703;51.020;6.128;2023-06-26T15:40:12;26.40;83.90
21090;DHT22;10703;51.020;6.128;2023-06-26T15:42:46;26.40;80.50
21090;DHT22;10703;51.020;6.128;2023-06-26T15:45:15;27.10;83.90
21090;DHT22;10703;51.020;6.128;2023-06-26T15:47:44;26.60;80.20